createdAt,value
2023-04-17T00:00:08.820Z,8.10
2023-04-17T00:02:57.774Z,8.40
2023-04-17T00:05:26.879Z,7.90
2023-04-17T00:07:55.533Z,8.20
2023-04-17T00:10:24.134Z,6.90
2023-04-17T00:12:52.746Z,8.10
2023-04-17T00:15:21.300Z,8.50
2023-04-17T00:17:49.693Z,8.30
2023-04-17T00:20:18.107Z,8.00
2023-04-17T00:22:46.680Z,7.50
2023-04-17T00:25:15.249Z,7.20
2023-04-17T00:27:43.633Z,7.10
2023-04-17T00:30:12.461Z,8.10
2023-04-17T00:32:40.836Z,7.00
2023-04-17T00:35:09.542Z,8.70
2023-04-17T00:37:38.156Z,7.50
2023-04-17T00:40:07.301Z,7.00
2023-04-17T00:42:36.313Z,7.70
2023-04-17T00:45:06.199Z,7.30
2023-04-17T00:47:34.685Z,8.20
2023-04-17T00:50:04.206Z,8.40
2023-04-17T00:52:32.746Z,7.80
2023-04-17T00:55:01.691Z,7.20
2023-04-17T00:57:30.480Z,8.10
2023-04-17T00:59:59.730Z,7.00
2023-04-17T01:02:28.755Z,6.80
2023-04-17T01:04:57.483Z,7.60
2023-04-17T01:07:26.398Z,6.80
2023-04-17T01:09:55.479Z,7.20
2023-04-17T01:12:25.409Z,7.70
2023-04-17T01:14:55.310Z,7.70
2023-04-17T01:17:26.419Z,7.40
2023-04-17T01:19:55.762Z,7.60
2023-04-17T01:22:24.655Z,7.90
2023-04-17T01:24:55.396Z,7.50
2023-04-17T01:27:25.216Z,8.50
2023-04-17T01:29:53.629Z,6.40
2023-04-17T01:32:22.266Z,6.80
2023-04-17T01:34:51.199Z,7.60
2023-04-17T01:37:20.265Z,7.40
2023-04-17T01:39:48.699Z,7.10
2023-04-17T01:42:17.283Z,7.00
2023-04-17T01:44:46.073Z,6.30
2023-04-17T01:47:14.497Z,6.40
2023-04-17T01:49:42.873Z,7.20
2023-04-17T01:52:11.414Z,7.30
2023-04-17T01:54:39.761Z,6.70
2023-04-17T01:57:08.086Z,7.30
2023-04-17T01:59:36.507Z,5.90
2023-04-17T02:02:06.002Z,7.70
2023-04-17T02:04:34.457Z,6.80
2023-04-17T02:07:03.217Z,6.40
2023-04-17T02:09:32.644Z,6.90
2023-04-17T02:12:01.145Z,7.00
2023-04-17T02:14:31.361Z,7.20
2023-04-17T02:16:59.922Z,6.90
2023-04-17T02:19:28.383Z,7.10
2023-04-17T02:21:57.095Z,6.90
2023-04-17T02:24:26.131Z,7.10
2023-04-17T02:26:54.620Z,6.50
2023-04-17T02:29:23.049Z,6.90
2023-04-17T02:31:51.803Z,7.70
2023-04-17T02:34:20.394Z,7.00
2023-04-17T02:36:52.793Z,6.80
2023-04-17T02:39:23.885Z,7.40
2023-04-17T02:41:52.374Z,7.60
2023-04-17T02:44:20.882Z,6.90
2023-04-17T02:46:49.457Z,7.50
2023-04-17T02:49:18.167Z,6.90
2023-04-17T02:51:46.760Z,7.00
2023-04-17T02:54:15.068Z,7.00
2023-04-17T02:56:43.476Z,7.30
2023-04-17T02:59:12.411Z,6.80
2023-04-17T03:01:41.113Z,7.30
2023-04-17T03:04:10.124Z,7.20
2023-04-17T03:06:38.914Z,7.00
2023-04-17T03:09:08.770Z,6.70
2023-04-17T03:11:37.157Z,6.40
2023-04-17T03:14:06.068Z,6.50
2023-04-17T03:16:34.703Z,6.50
2023-04-17T03:19:03.620Z,6.70
2023-04-17T03:21:32.288Z,6.30
2023-04-17T03:24:01.127Z,6.40
2023-04-17T03:26:29.674Z,7.00
2023-04-17T03:28:59.533Z,5.60
2023-04-17T03:31:29.083Z,5.90
2023-04-17T03:33:57.330Z,6.00
2023-04-17T03:36:27.391Z,6.30
2023-04-17T03:38:57.956Z,7.30
2023-04-17T03:41:26.525Z,5.90
2023-04-17T03:43:55.617Z,5.30
2023-04-17T03:46:24.314Z,5.80
2023-04-17T03:48:52.846Z,5.70
2023-04-17T03:51:21.561Z,6.00
2023-04-17T03:53:50.552Z,6.00
2023-04-17T03:56:20.660Z,5.70
2023-04-17T03:58:49.236Z,6.30
2023-04-17T04:01:18.357Z,5.90
2023-04-17T04:04:02.018Z,6.70
2023-04-17T04:06:30.913Z,6.20
2023-04-17T04:08:59.662Z,5.80
2023-04-17T04:11:28.440Z,6.10
2023-04-17T04:13:56.835Z,6.10
2023-04-17T04:16:25.611Z,7.10
2023-04-17T04:18:56.005Z,6.80
2023-04-17T04:21:24.909Z,6.70
2023-04-17T04:24:56.525Z,6.90
2023-04-17T04:28:31.633Z,7.40
2023-04-17T04:31:02.926Z,7.30
2023-04-17T04:33:36.224Z,7.40
2023-04-17T04:36:04.965Z,7.90
2023-04-17T04:38:34.694Z,7.70
2023-04-17T04:41:10.814Z,6.90
2023-04-17T04:43:40.473Z,7.60
2023-04-17T04:46:13.644Z,7.60
2023-04-17T04:48:47.187Z,6.30
2023-04-17T04:51:16.475Z,6.90
2023-04-17T04:53:46.333Z,7.00
2023-04-17T04:56:16.525Z,7.00
2023-04-17T04:58:45.316Z,7.20
2023-04-17T05:01:14.519Z,7.60
2023-04-17T05:03:45.973Z,7.40
2023-04-17T05:06:18.281Z,7.70
2023-04-17T05:08:49.801Z,6.40
2023-04-17T05:11:18.294Z,6.80
2023-04-17T05:13:47.173Z,7.60
2023-04-17T05:16:27.704Z,6.60
2023-04-17T05:18:56.649Z,6.70
2023-04-17T05:21:35.552Z,7.60
2023-04-17T05:24:03.966Z,6.70
2023-04-17T05:26:32.433Z,6.70
2023-04-17T05:29:01.056Z,6.80
2023-04-17T05:31:31.199Z,8.00
2023-04-17T05:33:59.894Z,6.00
2023-04-17T05:36:31.658Z,6.20
2023-04-17T05:39:00.905Z,6.40
2023-04-17T05:41:31.519Z,6.40
2023-04-17T05:43:59.977Z,6.80
2023-04-17T05:46:29.352Z,6.20
2023-04-17T05:48:58.186Z,6.50
2023-04-17T05:51:26.685Z,7.70
2023-04-17T05:53:55.546Z,9.30
2023-04-17T05:56:24.632Z,22.60
2023-04-17T05:58:53.145Z,13.60
2023-04-17T06:01:22.947Z,12.10
2023-04-17T06:03:54.219Z,11.60
2023-04-17T06:06:25.338Z,9.40
2023-04-17T06:08:54.724Z,10.70
2023-04-17T06:11:24.462Z,15.20
2023-04-17T06:13:52.801Z,11.80
2023-04-17T06:16:22.529Z,10.70
2023-04-17T06:18:51.020Z,8.90
2023-04-17T06:21:19.359Z,9.10
2023-04-17T06:23:47.724Z,7.70
2023-04-17T06:26:18.216Z,7.00
2023-04-17T06:28:46.864Z,6.80
2023-04-17T06:31:15.811Z,6.50
2023-04-17T06:33:44.565Z,7.10
2023-04-17T06:36:13.343Z,7.30
2023-04-17T06:38:47.598Z,8.30
2023-04-17T06:41:16.521Z,8.10
2023-04-17T06:43:45.039Z,8.00
2023-04-17T06:46:16.707Z,6.90
2023-04-17T06:48:45.482Z,9.00
2023-04-17T06:51:13.968Z,9.00
2023-04-17T06:53:42.558Z,10.80
2023-04-17T06:56:10.890Z,7.50
2023-04-17T06:58:44.653Z,9.20
2023-04-17T07:01:14.215Z,7.80
2023-04-17T07:03:43.325Z,7.50
2023-04-17T07:06:12.252Z,5.40
2023-04-17T07:08:40.690Z,5.90
2023-04-17T07:11:09.065Z,5.40
2023-04-17T07:13:37.539Z,5.30
2023-04-17T07:16:06.516Z,5.70
2023-04-17T07:18:35.144Z,6.00
2023-04-17T07:21:03.560Z,6.00
2023-04-17T07:23:32.073Z,5.60
2023-04-17T07:26:00.638Z,6.00
2023-04-17T07:28:28.996Z,5.90
2023-04-17T07:30:58.349Z,5.40
2023-04-17T07:33:26.983Z,6.00
2023-04-17T07:36:55.344Z,5.50
2023-04-17T07:39:23.679Z,5.60
2023-04-17T07:41:51.952Z,5.80
2023-04-17T07:44:20.274Z,8.50
2023-04-17T07:46:48.960Z,6.30
2023-04-17T07:49:17.672Z,8.00
2023-04-17T07:51:46.588Z,10.20
2023-04-17T07:54:15.051Z,13.60
2023-04-17T07:56:46.643Z,8.70
2023-04-17T07:59:16.515Z,7.10
2023-04-17T08:01:44.991Z,7.00
2023-04-17T08:04:13.746Z,7.80
2023-04-17T08:06:42.593Z,6.20
2023-04-17T08:09:13.789Z,6.10
2023-04-17T08:11:56.309Z,6.80
2023-04-17T08:14:26.802Z,6.30
2023-04-17T08:16:55.354Z,7.50
2023-04-17T08:19:23.777Z,8.20
2023-04-17T08:22:04.672Z,7.20
2023-04-17T08:24:33.184Z,9.00
2023-04-17T08:27:01.695Z,7.70
2023-04-17T08:29:30.456Z,7.90
2023-04-17T08:32:13.431Z,11.10
2023-04-17T08:34:44.919Z,8.60
2023-04-17T08:37:13.325Z,8.10
2023-04-17T08:39:41.816Z,8.70
2023-04-17T08:42:15.823Z,8.40
2023-04-17T08:45:49.702Z,8.70
2023-04-17T08:48:55.124Z,9.20
2023-04-17T08:51:28.095Z,8.50
2023-04-17T08:53:56.546Z,7.30
2023-04-17T08:56:25.012Z,7.00
2023-04-17T08:58:53.576Z,7.50
2023-04-17T09:01:22.118Z,8.00
2023-04-17T09:03:53.542Z,6.70
2023-04-17T09:06:22.055Z,6.80
2023-04-17T09:09:02.036Z,6.90
2023-04-17T09:11:30.829Z,5.50
2023-04-17T09:14:01.391Z,6.30
2023-04-17T09:16:30.039Z,7.30
2023-04-17T09:19:08.043Z,8.30
2023-04-17T09:21:36.434Z,8.20
2023-04-17T09:24:06.554Z,7.50
2023-04-17T09:26:35.968Z,6.40
2023-04-17T09:29:12.564Z,5.90
2023-04-17T09:31:43.071Z,7.30
2023-04-17T09:34:13.263Z,6.70
2023-04-17T09:36:43.349Z,6.50
2023-04-17T09:39:25.916Z,7.80
2023-04-17T09:42:06.515Z,9.40
2023-04-17T09:44:38.262Z,9.00
2023-04-17T09:47:08.251Z,9.20
2023-04-17T09:49:42.821Z,8.80
2023-04-17T09:52:12.578Z,7.00
2023-04-17T09:54:42.954Z,9.20
2023-04-17T09:57:11.899Z,8.60
2023-04-17T09:59:45.876Z,7.20
2023-04-17T10:02:16.768Z,8.70
2023-04-17T10:04:46.835Z,8.00
2023-04-17T10:07:16.687Z,6.30
2023-04-17T10:09:46.238Z,6.80
2023-04-17T10:12:20.557Z,6.10
2023-04-17T10:14:51.707Z,6.40
2023-04-17T10:17:29.098Z,6.40
2023-04-17T10:20:17.821Z,6.80
2023-04-17T10:22:49.540Z,6.10
2023-04-17T10:27:49.746Z,6.60
2023-04-17T10:32:47.056Z,6.20
2023-04-17T10:35:18.301Z,6.60
2023-04-17T10:37:52.666Z,6.50
2023-04-17T10:40:23.694Z,6.70
2023-04-17T10:43:13.633Z,6.50
2023-04-17T10:46:09.098Z,9.10
2023-04-17T10:48:41.077Z,7.90
2023-04-17T10:51:21.463Z,7.60
2023-04-17T10:53:57.050Z,7.70
2023-04-17T10:56:27.927Z,7.80
2023-04-17T10:59:07.170Z,7.00
2023-04-17T11:02:01.659Z,6.60
2023-04-17T11:04:32.355Z,7.10
2023-04-17T11:07:01.116Z,6.60
2023-04-17T11:09:29.866Z,5.80
2023-04-17T11:12:02.229Z,6.20
2023-04-17T11:14:31.658Z,6.10
2023-04-17T11:17:01.416Z,6.30
2023-04-17T11:19:32.707Z,5.60
2023-04-17T11:22:02.958Z,6.30
2023-04-17T11:24:32.517Z,6.70
2023-04-17T11:27:02.295Z,6.40
2023-04-17T11:29:30.914Z,6.50
2023-04-17T11:32:01.029Z,5.60
2023-04-17T11:34:30.869Z,6.70
2023-04-17T11:37:01.352Z,7.30
2023-04-17T11:39:32.407Z,6.60
2023-04-17T11:42:05.305Z,7.00
2023-04-17T11:44:34.490Z,6.30
2023-04-17T11:47:04.146Z,7.20
2023-04-17T11:49:33.724Z,6.30
2023-04-17T11:52:04.441Z,6.70
2023-04-17T11:54:38.144Z,6.90
2023-04-17T11:57:11.184Z,7.00
2023-04-17T11:59:42.338Z,7.50
2023-04-17T12:02:12.707Z,6.80
2023-04-17T12:04:41.429Z,7.20
2023-04-17T12:07:24.110Z,6.80
2023-04-17T12:09:57.269Z,7.00
2023-04-17T12:12:26.039Z,6.90
2023-04-17T12:14:54.544Z,6.00
2023-04-17T12:17:22.992Z,6.20
2023-04-17T12:19:51.839Z,6.40
2023-04-17T12:22:20.290Z,6.50
2023-04-17T12:24:48.869Z,7.80
2023-04-17T12:27:17.654Z,7.10
2023-04-17T12:29:46.116Z,6.50
2023-04-17T12:32:16.185Z,6.60
2023-04-17T12:34:44.642Z,5.60
2023-04-17T12:37:13.225Z,5.80
2023-04-17T12:39:41.748Z,5.90
2023-04-17T12:42:10.587Z,5.20
2023-04-17T12:44:39.828Z,5.30
2023-04-17T12:47:08.491Z,5.60
2023-04-17T12:49:36.905Z,4.80
2023-04-17T12:52:05.399Z,4.60
2023-04-17T12:54:34.080Z,5.00
2023-04-17T12:57:02.925Z,5.00
2023-04-17T12:59:31.385Z,4.90
2023-04-17T13:01:59.898Z,4.90
2023-04-17T13:04:28.653Z,4.80
2023-04-17T13:06:57.203Z,5.10
2023-04-17T13:09:25.741Z,6.10
2023-04-17T13:11:54.339Z,6.40
2023-04-17T13:14:22.804Z,5.40
2023-04-17T13:16:51.622Z,8.60
2023-04-17T13:19:20.438Z,5.40
2023-04-17T13:21:51.081Z,9.10
2023-04-17T13:24:19.411Z,8.10
2023-04-17T13:26:47.940Z,5.10
2023-04-17T13:29:19.128Z,4.50
2023-04-17T13:34:17.151Z,5.00
2023-04-17T13:36:46.356Z,5.50
2023-04-17T13:39:15.269Z,4.60
2023-04-17T13:41:43.797Z,5.30
2023-04-17T13:44:13.830Z,4.90
2023-04-17T13:46:42.456Z,5.70
2023-04-17T13:49:11.499Z,13.60
2023-04-17T13:51:40.360Z,7.90
2023-04-17T13:54:10.233Z,7.20
2023-04-17T13:56:38.699Z,16.90
2023-04-17T13:59:07.487Z,104.00
2023-04-17T14:01:36.131Z,101.10
2023-04-17T14:04:05.248Z,6.20
2023-04-17T14:06:37.211Z,7.60
2023-04-17T14:09:06.443Z,6.40
2023-04-17T14:11:34.758Z,7.40
2023-04-17T14:14:03.143Z,8.60
2023-04-17T14:16:31.881Z,29.90
2023-04-17T14:19:12.290Z,52.10
2023-04-17T14:24:10.766Z,104.00
2023-04-17T14:26:39.350Z,119.00
2023-04-17T14:29:07.957Z,66.00
2023-04-17T14:31:36.373Z,35.70
2023-04-17T14:34:04.825Z,32.40
2023-04-17T14:36:34.967Z,46.30
2023-04-17T14:39:03.627Z,40.70
2023-04-17T14:41:34.289Z,12.60
2023-04-17T14:44:03.048Z,8.70
2023-04-17T14:46:32.089Z,8.50
2023-04-17T14:49:00.905Z,8.50
2023-04-17T14:51:30.596Z,6.90
2023-04-17T14:53:59.396Z,8.40
2023-04-17T14:56:27.985Z,9.00
2023-04-17T14:58:56.422Z,6.90
2023-04-17T15:01:24.894Z,9.80
2023-04-17T15:03:53.665Z,6.40
2023-04-17T15:06:22.314Z,5.60
2023-04-17T15:08:51.029Z,5.40
2023-04-17T15:11:19.574Z,6.10
2023-04-17T15:13:48.000Z,5.90
2023-04-17T15:16:16.620Z,5.70
2023-04-17T15:18:44.999Z,6.00
2023-04-17T15:21:13.466Z,5.50
2023-04-17T15:23:41.927Z,6.20
2023-04-17T15:26:10.658Z,6.40
2023-04-17T15:28:40.355Z,7.20
2023-04-17T15:31:08.902Z,6.70
2023-04-17T15:33:37.827Z,9.00
2023-04-17T15:36:06.566Z,6.80
2023-04-17T15:38:35.490Z,6.70
2023-04-17T15:41:04.124Z,8.00
2023-04-17T15:43:32.827Z,9.80
2023-04-17T15:47:00.951Z,4.50
2023-04-17T15:49:31.025Z,8.10
2023-04-17T15:51:59.901Z,5.80
2023-04-17T15:58:37.727Z,5.60
2023-04-17T16:02:05.961Z,5.70
2023-04-17T16:04:34.638Z,6.10
2023-04-17T16:07:03.151Z,6.70
2023-04-17T16:09:31.727Z,8.10
2023-04-17T16:12:00.167Z,9.40
2023-04-17T16:14:28.858Z,8.80
2023-04-17T16:16:59.775Z,6.70
2023-04-17T16:20:06.282Z,7.70
2023-04-17T16:23:39.396Z,5.50
2023-04-17T16:26:08.014Z,6.30
2023-04-17T16:28:36.936Z,6.50
2023-04-17T16:31:05.742Z,6.30
2023-04-17T16:33:34.215Z,5.50
2023-04-17T16:36:02.786Z,5.50
2023-04-17T16:38:31.130Z,5.40
2023-04-17T16:41:02.019Z,5.80
2023-04-17T16:43:31.256Z,6.40
2023-04-17T16:46:03.301Z,5.30
2023-04-17T16:48:56.632Z,6.00
2023-04-17T16:51:25.259Z,6.30
2023-04-17T16:54:53.689Z,5.30
2023-04-17T16:58:21.866Z,4.80
2023-04-17T17:01:50.473Z,5.00
2023-04-17T17:05:18.637Z,5.80
2023-04-17T17:08:53.939Z,4.90
2023-04-17T17:11:23.811Z,5.10
2023-04-17T17:13:56.458Z,5.00
2023-04-17T17:16:25.044Z,4.80
2023-04-17T17:18:53.603Z,5.40
2023-04-17T17:21:22.173Z,5.60
2023-04-17T17:23:50.779Z,5.00
2023-04-17T17:26:21.542Z,5.10
2023-04-17T17:28:53.394Z,5.20
2023-04-17T17:31:22.753Z,5.60
2023-04-17T17:33:54.038Z,6.40
2023-04-17T17:36:22.567Z,5.70
2023-04-17T17:38:56.033Z,5.80
2023-04-17T17:41:24.816Z,5.50
2023-04-17T17:43:56.259Z,5.90
2023-04-17T17:46:24.730Z,5.40
2023-04-17T17:48:53.149Z,5.60
2023-04-17T17:51:23.683Z,5.10
2023-04-17T17:53:52.206Z,4.80
2023-04-17T17:56:21.890Z,4.60
2023-04-17T17:58:53.755Z,4.90
2023-04-17T18:01:24.997Z,5.00
2023-04-17T18:03:53.915Z,4.60
2023-04-17T18:06:22.466Z,4.00
2023-04-17T18:08:52.894Z,4.50
2023-04-17T18:11:21.453Z,4.90
2023-04-17T18:13:50.027Z,4.10
2023-04-17T18:16:18.551Z,4.00
2023-04-17T18:18:47.679Z,12.70
2023-04-17T18:21:16.474Z,4.40
2023-04-17T18:23:44.951Z,4.60
2023-04-17T18:26:16.057Z,4.50
2023-04-17T18:28:44.641Z,4.20
2023-04-17T18:31:13.308Z,4.00
2023-04-17T18:33:41.919Z,3.80
2023-04-17T18:36:10.682Z,4.60
2023-04-17T18:38:41.795Z,4.50
2023-04-17T18:41:10.176Z,4.80
2023-04-17T18:43:38.638Z,5.80
2023-04-17T18:46:07.870Z,5.20
2023-04-17T18:48:36.677Z,5.10
2023-04-17T18:51:15.088Z,5.20
2023-04-17T18:53:43.779Z,4.40
2023-04-17T18:56:13.826Z,4.80
2023-04-17T18:58:42.251Z,5.30
2023-04-17T19:01:11.106Z,5.10
2023-04-17T19:03:39.856Z,4.40
2023-04-17T19:06:08.344Z,3.90
2023-04-17T19:08:41.593Z,4.20
2023-04-17T19:11:10.139Z,3.70
2023-04-17T19:13:39.030Z,3.30
2023-04-17T19:16:07.624Z,3.90
2023-04-17T19:18:36.303Z,3.40
2023-04-17T19:21:04.801Z,3.40
2023-04-17T19:23:33.576Z,3.20
2023-04-17T19:26:02.087Z,3.50
2023-04-17T19:28:30.695Z,3.80
2023-04-17T19:31:00.909Z,3.40
2023-04-17T19:33:29.572Z,3.30
2023-04-17T19:35:58.490Z,3.50
2023-04-17T19:38:28.175Z,3.30
2023-04-17T19:41:19.314Z,3.50
2023-04-17T19:43:51.599Z,3.30
2023-04-17T19:46:22.058Z,3.80
2023-04-17T19:48:51.037Z,3.50
2023-04-17T19:51:19.701Z,3.90
2023-04-17T19:53:48.334Z,3.70
2023-04-17T19:56:16.756Z,4.00
2023-04-17T19:58:46.804Z,3.50
2023-04-17T20:01:17.036Z,4.10
2023-04-17T20:03:45.868Z,4.40
2023-04-17T20:06:14.509Z,4.10
2023-04-17T20:08:43.028Z,3.50
2023-04-17T20:11:12.452Z,4.00
2023-04-17T20:13:41.042Z,4.00
2023-04-17T20:16:09.601Z,4.00
2023-04-17T20:18:38.211Z,3.50
2023-04-17T20:21:06.775Z,4.00
2023-04-17T20:23:35.153Z,3.90
2023-04-17T20:26:03.759Z,4.10
2023-04-17T20:28:32.204Z,10.80
2023-04-17T20:31:00.717Z,4.30
2023-04-17T20:33:29.184Z,4.00
2023-04-17T20:35:57.799Z,4.40
2023-04-17T20:38:26.727Z,4.20
2023-04-17T20:40:55.110Z,4.70
2023-04-17T20:43:23.545Z,4.00
2023-04-17T20:45:52.016Z,4.60
2023-04-17T20:48:20.401Z,4.00
2023-04-17T20:50:48.980Z,3.80
2023-04-17T20:53:17.921Z,4.20
2023-04-17T20:55:47.230Z,4.40
2023-04-17T20:58:15.734Z,4.50
2023-04-17T21:00:54.453Z,5.10
2023-04-17T21:03:31.094Z,4.20
2023-04-17T21:06:00.981Z,4.50
2023-04-17T21:08:29.562Z,4.90
2023-04-17T21:10:58.297Z,5.20
2023-04-17T21:13:27.000Z,5.70
2023-04-17T21:15:55.545Z,6.80
2023-04-17T21:18:23.971Z,7.50
2023-04-17T21:20:52.257Z,5.40
2023-04-17T21:23:20.646Z,5.30
2023-04-17T21:25:52.260Z,5.30
2023-04-17T21:28:20.917Z,5.80
2023-04-17T21:30:49.913Z,5.80
2023-04-17T21:33:18.686Z,5.20
2023-04-17T21:35:47.233Z,5.40
2023-04-17T21:38:15.645Z,5.70
2023-04-17T21:40:50.964Z,6.00
2023-04-17T21:43:20.158Z,5.70
2023-04-17T21:45:50.141Z,4.60
2023-04-17T21:48:18.668Z,5.10
2023-04-17T21:50:47.097Z,4.90
2023-04-17T21:53:15.734Z,5.00
2023-04-17T21:55:44.032Z,5.00
2023-04-17T21:58:12.709Z,4.80
2023-04-17T22:00:41.201Z,5.80
2023-04-17T22:03:09.703Z,4.90
2023-04-17T22:05:38.329Z,4.50
2023-04-17T22:08:06.901Z,4.80
2023-04-17T22:10:35.657Z,6.80
2023-04-17T22:13:04.286Z,5.00
2023-04-17T22:15:33.029Z,4.60
2023-04-17T22:18:01.583Z,5.20
2023-04-17T22:20:30.067Z,4.90
2023-04-17T22:22:58.638Z,5.10
2023-04-17T22:25:26.992Z,4.40
2023-04-17T22:27:55.577Z,4.50
2023-04-17T22:30:24.194Z,4.50
2023-04-17T22:32:52.650Z,4.50
2023-04-17T22:35:20.997Z,5.00
2023-04-17T22:37:49.444Z,4.50
2023-04-17T22:40:17.886Z,5.10
2023-04-17T22:42:46.382Z,4.70
2023-04-17T22:45:14.840Z,4.70
2023-04-17T22:47:43.430Z,4.50
2023-04-17T22:50:13.941Z,4.70
2023-04-17T22:52:42.248Z,5.00
2023-04-17T22:55:11.277Z,5.30
2023-04-17T22:57:39.714Z,5.00
2023-04-17T23:00:10.232Z,6.10
2023-04-17T23:02:38.798Z,5.80
2023-04-17T23:05:07.842Z,6.20
2023-04-17T23:07:36.337Z,6.30
2023-04-17T23:10:05.201Z,6.40
2023-04-17T23:12:33.517Z,6.30
2023-04-17T23:15:02.192Z,6.60
2023-04-17T23:17:31.238Z,6.70
2023-04-17T23:19:59.651Z,7.10
2023-04-17T23:22:28.268Z,6.60
2023-04-17T23:24:57.299Z,7.80
2023-04-17T23:27:26.240Z,7.70
2023-04-17T23:29:54.689Z,6.70
2023-04-17T23:32:23.179Z,6.60
2023-04-17T23:34:51.883Z,6.40
2023-04-17T23:37:20.580Z,6.70
2023-04-17T23:39:49.149Z,7.30
2023-04-17T23:42:17.784Z,7.00
2023-04-17T23:44:46.131Z,7.60
2023-04-17T23:47:14.562Z,7.40
2023-04-17T23:49:42.980Z,7.20
2023-04-17T23:52:11.393Z,7.30
2023-04-17T23:54:39.795Z,7.30
2023-04-17T23:57:08.255Z,7.00
2023-04-17T23:59:36.787Z,7.80
